createdAt,value
2019-03-26T00:02:43.982Z,65.7
2019-03-26T00:07:45.251Z,65.7
2019-03-26T00:12:27.339Z,65.7
2019-03-26T00:17:28.829Z,65.8
2019-03-26T00:22:28.329Z,65.8
2019-03-26T00:27:27.836Z,65.8
2019-03-26T00:32:28.737Z,65.8
2019-03-26T00:37:28.532Z,65.9
2019-03-26T00:42:28.925Z,65.9
2019-03-26T00:47:27.932Z,66.2
2019-03-26T00:52:29.126Z,66.2
2019-03-26T00:57:28.233Z,66.0
2019-03-26T01:02:28.578Z,66.0
2019-03-26T01:07:27.888Z,66.2
2019-03-26T01:12:31.563Z,66.2
2019-03-26T01:17:28.563Z,66.2
2019-03-26T01:22:28.246Z,66.2
2019-03-26T01:27:28.031Z,66.1
2019-03-26T01:32:28.689Z,66.3
2019-03-26T01:37:27.963Z,66.2
2019-03-26T01:42:27.888Z,66.3
2019-03-26T01:47:28.249Z,66.4
2019-03-26T01:52:28.364Z,66.4
2019-03-26T01:57:28.610Z,66.1
2019-03-26T02:02:28.339Z,66.0
2019-03-26T02:07:28.804Z,66.2
2019-03-26T02:12:27.826Z,66.5
2019-03-26T02:17:28.782Z,66.5
2019-03-26T02:22:27.957Z,66.5
2019-03-26T02:27:28.349Z,66.2
2019-03-26T02:32:28.323Z,66.2
2019-03-26T02:37:27.714Z,66.2
2019-03-26T02:42:28.379Z,66.2
2019-03-26T02:47:28.183Z,66.5
2019-03-26T02:52:27.762Z,66.5
2019-03-26T02:57:27.868Z,66.4
2019-03-26T03:02:28.472Z,66.3
2019-03-26T03:07:28.650Z,66.3
2019-03-26T03:12:27.856Z,66.4
2019-03-26T03:17:28.262Z,66.4
2019-03-26T03:22:28.482Z,66.7
2019-03-26T03:27:28.021Z,67.0
2019-03-26T03:32:28.134Z,66.7
2019-03-26T03:37:28.128Z,66.6
2019-03-26T03:42:28.076Z,66.8
2019-03-26T03:47:28.142Z,66.9
2019-03-26T03:52:27.640Z,66.7
2019-03-26T03:57:28.338Z,67.0
2019-03-26T04:02:28.706Z,67.1
2019-03-26T04:07:29.077Z,67.2
2019-03-26T04:12:28.326Z,67.2
2019-03-26T04:17:28.853Z,67.4
2019-03-26T04:22:28.601Z,67.4
2019-03-26T04:27:28.501Z,67.5
2019-03-26T04:32:28.872Z,67.4
2019-03-26T04:37:28.800Z,67.6
2019-03-26T04:42:28.851Z,67.6
2019-03-26T04:47:28.391Z,67.6
2019-03-26T04:52:27.915Z,67.5
2019-03-26T04:57:28.744Z,67.5
2019-03-26T05:02:28.343Z,67.6
2019-03-26T05:07:29.572Z,67.6
2019-03-26T05:12:28.400Z,67.4
2019-03-26T05:17:28.622Z,67.4
2019-03-26T05:22:28.808Z,67.2
2019-03-26T05:27:29.115Z,67.6
2019-03-26T05:32:28.324Z,67.5
2019-03-26T05:37:29.076Z,67.3
2019-03-26T05:42:28.954Z,67.3
2019-03-26T05:47:29.428Z,67.2
2019-03-26T05:52:28.612Z,67.3
2019-03-26T05:57:30.083Z,67.2
2019-03-26T06:02:28.546Z,67.3
2019-03-26T06:07:31.685Z,67.3
2019-03-26T06:12:29.506Z,67.5
2019-03-26T06:17:28.743Z,67.4
2019-03-26T06:22:28.637Z,67.6
2019-03-26T06:27:28.243Z,67.6
2019-03-26T06:32:29.367Z,67.6
2019-03-26T06:37:28.262Z,67.6
2019-03-26T06:42:30.098Z,67.5
2019-03-26T06:47:28.930Z,67.3
2019-03-26T06:52:28.931Z,67.3
2019-03-26T06:57:36.108Z,67.1
2019-03-26T07:02:29.184Z,67.4
2019-03-26T07:07:32.355Z,67.4
2019-03-26T07:12:28.666Z,67.2
2019-03-26T07:17:29.845Z,66.9
2019-03-26T07:22:28.637Z,67.0
2019-03-26T07:27:29.965Z,66.9
2019-03-26T07:32:28.671Z,66.9
2019-03-26T07:37:29.608Z,66.9
2019-03-26T07:42:28.903Z,67.1
2019-03-26T07:47:29.687Z,67.0
2019-03-26T07:52:27.964Z,66.5
2019-03-26T07:57:28.898Z,66.5
2019-03-26T08:02:29.254Z,66.7
2019-03-26T08:07:29.461Z,66.7
2019-03-26T08:12:28.985Z,67.0
2019-03-26T08:17:29.925Z,66.7
2019-03-26T08:22:28.841Z,66.7
2019-03-26T08:27:29.339Z,66.4
2019-03-26T08:32:28.160Z,66.2
2019-03-26T08:37:28.046Z,66.2
2019-03-26T08:42:29.187Z,66.1
2019-03-26T08:47:29.647Z,65.8
2019-03-26T08:52:28.229Z,65.6
2019-03-26T08:57:29.114Z,65.6
2019-03-26T09:02:30.137Z,65.4
2019-03-26T09:07:28.802Z,65.8
2019-03-26T09:12:28.346Z,66.4
2019-03-26T09:17:28.758Z,66.4
2019-03-26T09:22:28.600Z,66.5
2019-03-26T09:27:28.542Z,66.0
2019-03-26T09:32:29.299Z,65.9
2019-03-26T09:37:28.989Z,66.0
2019-03-26T09:42:29.269Z,65.9
2019-03-26T09:47:28.660Z,65.6
2019-03-26T09:52:28.741Z,65.8
2019-03-26T09:57:28.730Z,65.4
2019-03-26T10:02:29.549Z,65.9
2019-03-26T10:07:28.089Z,66.1
2019-03-26T10:12:29.290Z,66.2
2019-03-26T10:17:29.950Z,66.2
2019-03-26T10:22:29.501Z,66.2
2019-03-26T10:27:28.186Z,65.9
2019-03-26T10:32:29.473Z,65.7
2019-03-26T10:37:28.693Z,66.0
2019-03-26T10:42:29.276Z,66.0
2019-03-26T10:47:28.973Z,65.8
2019-03-26T10:52:34.616Z,65.6
2019-03-26T10:57:29.018Z,65.3
2019-03-26T11:02:29.894Z,65.4
2019-03-26T11:07:28.474Z,65.5
2019-03-26T11:12:28.199Z,66.0
2019-03-26T11:17:29.440Z,64.9
2019-03-26T11:22:28.820Z,65.5
2019-03-26T11:27:28.787Z,65.1
2019-03-26T11:32:29.316Z,65.4
2019-03-26T11:37:28.248Z,65.2
2019-03-26T11:42:28.223Z,65.4
2019-03-26T11:47:28.640Z,65.4
2019-03-26T11:52:28.977Z,65.9
2019-03-26T11:57:28.837Z,66.0
2019-03-26T12:02:28.774Z,66.1
2019-03-26T12:07:29.104Z,66.1
2019-03-26T12:12:28.607Z,66.5
2019-03-26T12:17:29.398Z,66.8
2019-03-26T12:22:31.826Z,65.8
2019-03-26T12:27:29.114Z,65.7
2019-03-26T12:32:28.718Z,65.3
2019-03-26T12:37:29.368Z,65.3
2019-03-26T12:42:30.763Z,65.6
2019-03-26T12:47:28.481Z,66.3
2019-03-26T12:52:31.075Z,66.5
2019-03-26T12:57:29.053Z,66.4
2019-03-26T13:02:28.213Z,66.4
2019-03-26T13:07:29.156Z,66.7
2019-03-26T13:12:28.856Z,67.6
2019-03-26T13:17:29.510Z,67.3
2019-03-26T13:22:28.391Z,67.1
2019-03-26T13:27:29.230Z,66.6
2019-03-26T13:32:29.544Z,66.6
2019-03-26T13:37:28.370Z,66.8
2019-03-26T13:42:28.358Z,66.7
2019-03-26T13:47:29.671Z,66.7
2019-03-26T13:52:28.138Z,66.0
2019-03-26T13:57:29.101Z,66.1
2019-03-26T14:02:29.328Z,66.7
2019-03-26T14:07:28.475Z,66.7
2019-03-26T14:12:29.246Z,67.0
2019-03-26T14:17:29.675Z,66.9
2019-03-26T14:22:28.432Z,66.4
2019-03-26T14:27:29.445Z,65.1
2019-03-26T14:32:27.999Z,64.0
2019-03-26T14:37:28.229Z,65.6
2019-03-26T14:42:29.197Z,65.7
2019-03-26T14:47:28.538Z,63.6
2019-03-26T14:52:28.791Z,60.1
2019-03-26T14:57:28.875Z,56.0
2019-03-26T15:02:28.809Z,53.4
2019-03-26T15:07:28.866Z,49.0
2019-03-26T15:12:29.187Z,48.9
2019-03-26T15:17:30.679Z,48.6
2019-03-26T15:22:28.711Z,48.2
2019-03-26T15:27:29.125Z,47.5
2019-03-26T15:32:28.871Z,51.0
2019-03-26T15:37:28.542Z,47.6
2019-03-26T15:42:29.142Z,47.6
2019-03-26T15:47:29.940Z,45.9
2019-03-26T15:52:28.639Z,46.9
2019-03-26T15:57:28.575Z,54.5
2019-03-26T16:02:28.706Z,58.1
2019-03-26T16:07:28.551Z,60.9
2019-03-26T16:12:41.603Z,60.8
2019-03-26T16:17:30.014Z,59.6
2019-03-26T16:22:28.933Z,59.3
2019-03-26T16:27:29.509Z,60.2
2019-03-26T16:32:28.362Z,60.0
2019-03-26T16:37:28.704Z,59.8
2019-03-26T16:42:28.748Z,50.1
2019-03-26T16:47:28.943Z,50.0
2019-03-26T16:52:29.601Z,52.0
2019-03-26T16:57:28.131Z,50.5
2019-03-26T17:02:28.505Z,50.5
2019-03-26T17:07:29.362Z,54.9
2019-03-26T17:12:28.714Z,54.9
2019-03-26T17:17:28.798Z,58.1
2019-03-26T17:22:28.678Z,59.7
2019-03-26T17:27:29.621Z,59.6
2019-03-26T17:32:28.725Z,58.9
2019-03-26T17:37:28.711Z,59.6
2019-03-26T17:42:28.849Z,61.2
2019-03-26T17:47:27.902Z,61.8
2019-03-26T17:52:28.240Z,62.2
2019-03-26T17:57:28.376Z,62.2
2019-03-26T18:02:29.465Z,62.2
2019-03-26T18:07:28.960Z,62.1
2019-03-26T18:12:31.661Z,62.0
2019-03-26T18:17:29.228Z,62.2
2019-03-26T18:22:29.774Z,62.6
2019-03-26T18:27:28.320Z,62.4
2019-03-26T18:32:28.279Z,62.8
2019-03-26T18:37:27.583Z,62.7
2019-03-26T18:42:28.920Z,62.7
2019-03-26T18:47:29.182Z,62.5
2019-03-26T18:52:28.694Z,62.6
2019-03-26T18:57:28.230Z,62.6
2019-03-26T19:02:28.248Z,62.6
2019-03-26T19:07:29.090Z,62.7
2019-03-26T19:12:27.427Z,62.9
2019-03-26T19:17:28.955Z,62.9
2019-03-26T19:22:30.229Z,63.2
2019-03-26T19:27:28.867Z,63.1
2019-03-26T19:32:28.886Z,63.3
2019-03-26T19:37:28.547Z,63.3
2019-03-26T19:42:29.230Z,63.4
2019-03-26T19:47:28.613Z,63.6
2019-03-26T19:52:28.614Z,63.6
2019-03-26T19:57:28.083Z,63.7
2019-03-26T20:02:28.319Z,63.7
2019-03-26T20:07:28.628Z,64.1
2019-03-26T20:12:28.584Z,64.1
2019-03-26T20:17:28.507Z,64.4
2019-03-26T20:22:28.414Z,64.4
2019-03-26T20:27:29.101Z,64.6
2019-03-26T20:32:28.740Z,64.6
2019-03-26T20:37:29.695Z,64.5
2019-03-26T20:42:28.104Z,64.6
2019-03-26T20:47:28.432Z,64.5
2019-03-26T20:52:29.659Z,64.5
2019-03-26T20:57:27.966Z,64.6
2019-03-26T21:02:28.539Z,64.8
2019-03-26T21:07:28.040Z,64.8
2019-03-26T21:12:28.493Z,64.8
2019-03-26T21:17:28.481Z,64.8
2019-03-26T21:22:28.408Z,64.7
2019-03-26T21:27:29.162Z,64.5
2019-03-26T21:32:27.792Z,64.7
2019-03-26T21:37:27.863Z,65.0
2019-03-26T21:42:29.740Z,64.8
2019-03-26T21:47:28.162Z,64.7
2019-03-26T21:52:27.883Z,64.7
2019-03-26T21:57:27.970Z,64.8
2019-03-26T22:02:28.285Z,64.7
2019-03-26T22:07:30.075Z,64.7
2019-03-26T22:12:28.335Z,64.7
2019-03-26T22:17:29.307Z,64.7
2019-03-26T22:22:28.035Z,64.8
2019-03-26T22:27:27.992Z,64.5
2019-03-26T22:32:28.684Z,64.4
2019-03-26T22:37:29.354Z,64.6
2019-03-26T22:42:28.494Z,64.6
2019-03-26T22:47:28.139Z,64.6
2019-03-26T22:52:28.696Z,64.7
2019-03-26T22:57:28.175Z,64.7
2019-03-26T23:02:28.416Z,64.8
2019-03-26T23:07:29.458Z,64.8
2019-03-26T23:12:29.071Z,64.9
2019-03-26T23:23:05.504Z,64.5
2019-03-26T23:28:03.807Z,64.9
2019-03-26T23:33:04.181Z,65.1
2019-03-26T23:38:03.947Z,65.2
2019-03-26T23:43:03.782Z,65.2
2019-03-26T23:48:03.666Z,65.1
2019-03-26T23:53:04.184Z,65.2
2019-03-26T23:58:04.378Z,65.2
